sensor_id;sensor_type;location;lat;lon;timestamp;P1;durP1;ratioP1;P2;durP2;ratioP2
3133;SDS011;1577;49.912;10.924;2024-01-15T00:01:47;45.47;;;17.30;;
3133;SDS011;1577;49.912;10.924;2024-01-15T00:04:13;54.28;;;18.67;;
3133;SDS011;1577;49.912;10.924;2024-01-15T00:06:38;41.10;;;16.83;;
3133;SDS011;1577;49.912;10.924;2024-01-15T00:09:04;41.77;;;16.13;;
3133;SDS011;1577;49.912;10.924;2024-01-15T00:11:31;43.38;;;17.23;;
3133;SDS011;1577;49.912;10.924;2024-01-15T00:13:57;39.37;;;15.30;;
3133;SDS011;1577;49.912;10.924;2024-01-15T00:16:22;48.27;;;18.77;;
3133;SDS011;1577;49.912;10.924;2024-01-15T00:18:48;30.23;;;9.23;;
3133;SDS011;1577;49.912;10.924;2024-01-15T00:21:13;52.33;;;21.80;;
3133;SDS011;1577;49.912;10.924;2024-01-15T00:23:42;27.77;;;12.07;;
3133;SDS011;1577;49.912;10.924;2024-01-15T00:26:09;40.53;;;17.25;;
3133;SDS011;1577;49.912;10.924;2024-01-15T00:28:35;48.80;;;19.23;;
3133;SDS011;1577;49.912;10.924;2024-01-15T00:31:02;50.40;;;18.80;;
3133;SDS011;1577;49.912;10.924;2024-01-15T00:33:27;51.23;;;19.20;;
3133;SDS011;1577;49.912;10.924;2024-01-15T00:35:53;45.33;;;17.77;;
3133;SDS011;1577;49.912;10.924;2024-01-15T00:38:18;45.60;;;18.60;;
3133;SDS011;1577;49.912;10.924;2024-01-15T00:40:45;47.72;;;17.45;;
3133;SDS011;1577;49.912;10.924;2024-01-15T00:43:10;44.00;;;17.80;;
3133;SDS011;1577;49.912;10.924;2024-01-15T00:45:36;49.47;;;17.87;;
3133;SDS011;1577;49.912;10.924;2024-01-15T00:48:02;20.77;;;10.10;;
3133;SDS011;1577;49.912;10.924;2024-01-15T00:50:28;51.92;;;19.88;;
3133;SDS011;1577;49.912;10.924;2024-01-15T00:52:54;38.22;;;15.95;;
3133;SDS011;1577;49.912;10.924;2024-01-15T00:55:20;62.77;;;18.27;;
3133;SDS011;1577;49.912;10.924;2024-01-15T00:57:45;51.97;;;19.50;;
3133;SDS011;1577;49.912;10.924;2024-01-15T01:00:11;31.50;;;12.93;;
3133;SDS011;1577;49.912;10.924;2024-01-15T01:02:37;49.83;;;20.48;;
3133;SDS011;1577;49.912;10.924;2024-01-15T01:05:03;49.83;;;18.40;;
3133;SDS011;1577;49.912;10.924;2024-01-15T01:07:29;48.90;;;17.00;;
3133;SDS011;1577;49.912;10.924;2024-01-15T01:09:55;32.93;;;14.33;;
3133;SDS011;1577;49.912;10.924;2024-01-15T01:12:20;42.67;;;17.42;;
3133;SDS011;1577;49.912;10.924;2024-01-15T01:14:46;35.40;;;12.60;;
3133;SDS011;1577;49.912;10.924;2024-01-15T01:17:11;41.17;;;15.30;;
3133;SDS011;1577;49.912;10.924;2024-01-15T01:19:37;49.97;;;17.20;;
3133;SDS011;1577;49.912;10.924;2024-01-15T01:22:03;48.40;;;17.80;;
3133;SDS011;1577;49.912;10.924;2024-01-15T01:24:28;47.40;;;16.27;;
3133;SDS011;1577;49.912;10.924;2024-01-15T01:26:54;41.67;;;17.07;;
3133;SDS011;1577;49.912;10.924;2024-01-15T01:29:20;45.47;;;16.63;;
3133;SDS011;1577;49.912;10.924;2024-01-15T01:31:45;49.23;;;17.23;;
3133;SDS011;1577;49.912;10.924;2024-01-15T01:34:13;47.13;;;16.80;;
3133;SDS011;1577;49.912;10.924;2024-01-15T01:36:40;45.10;;;16.35;;
3133;SDS011;1577;49.912;10.924;2024-01-15T01:39:05;35.17;;;14.43;;
3133;SDS011;1577;49.912;10.924;2024-01-15T01:41:31;43.17;;;18.00;;
3133;SDS011;1577;49.912;10.924;2024-01-15T01:43:57;40.20;;;15.97;;
3133;SDS011;1577;49.912;10.924;2024-01-15T01:46:23;46.40;;;17.13;;
3133;SDS011;1577;49.912;10.924;2024-01-15T01:48:51;36.33;;;16.17;;
3133;SDS011;1577;49.912;10.924;2024-01-15T01:51:17;40.35;;;14.50;;
3133;SDS011;1577;49.912;10.924;2024-01-15T01:53:43;50.15;;;14.85;;
3133;SDS011;1577;49.912;10.924;2024-01-15T01:56:10;39.10;;;15.77;;
3133;SDS011;1577;49.912;10.924;2024-01-15T01:58:36;41.05;;;17.02;;
3133;SDS011;1577;49.912;10.924;2024-01-15T02:01:02;27.27;;;11.20;;
3133;SDS011;1577;49.912;10.924;2024-01-15T02:03:29;42.20;;;15.00;;
3133;SDS011;1577;49.912;10.924;2024-01-15T02:05:56;36.97;;;14.55;;
3133;SDS011;1577;49.912;10.924;2024-01-15T02:08:21;37.05;;;13.90;;
3133;SDS011;1577;49.912;10.924;2024-01-15T02:10:47;38.85;;;14.88;;
3133;SDS011;1577;49.912;10.924;2024-01-15T02:13:13;34.70;;;13.90;;
3133;SDS011;1577;49.912;10.924;2024-01-15T02:15:39;43.78;;;16.10;;
3133;SDS011;1577;49.912;10.924;2024-01-15T02:18:05;39.87;;;15.60;;
3133;SDS011;1577;49.912;10.924;2024-01-15T02:20:32;33.47;;;14.25;;
3133;SDS011;1577;49.912;10.924;2024-01-15T02:23:16;36.07;;;13.57;;
3133;SDS011;1577;49.912;10.924;2024-01-15T02:25:43;44.25;;;15.57;;
3133;SDS011;1577;49.912;10.924;2024-01-15T02:28:11;31.33;;;11.93;;
3133;SDS011;1577;49.912;10.924;2024-01-15T02:30:38;37.58;;;14.65;;
3133;SDS011;1577;49.912;10.924;2024-01-15T02:33:05;30.10;;;13.73;;
3133;SDS011;1577;49.912;10.924;2024-01-15T02:35:31;32.33;;;11.80;;
3133;SDS011;1577;49.912;10.924;2024-01-15T02:37:58;38.70;;;13.85;;
3133;SDS011;1577;49.912;10.924;2024-01-15T02:40:23;24.93;;;10.33;;
3133;SDS011;1577;49.912;10.924;2024-01-15T02:42:49;33.03;;;12.80;;
3133;SDS011;1577;49.912;10.924;2024-01-15T02:45:15;35.67;;;13.70;;
3133;SDS011;1577;49.912;10.924;2024-01-15T02:47:40;25.30;;;9.97;;
3133;SDS011;1577;49.912;10.924;2024-01-15T02:50:06;30.33;;;12.53;;
3133;SDS011;1577;49.912;10.924;2024-01-15T02:52:32;34.97;;;13.43;;
3133;SDS011;1577;49.912;10.924;2024-01-15T02:54:57;37.20;;;14.83;;
3133;SDS011;1577;49.912;10.924;2024-01-15T02:57:23;28.93;;;12.80;;
3133;SDS011;1577;49.912;10.924;2024-01-15T02:59:48;22.47;;;9.87;;
3133;SDS011;1577;49.912;10.924;2024-01-15T03:02:14;18.27;;;7.40;;
3133;SDS011;1577;49.912;10.924;2024-01-15T03:04:46;29.30;;;12.80;;
3133;SDS011;1577;49.912;10.924;2024-01-15T03:07:11;35.58;;;14.38;;
3133;SDS011;1577;49.912;10.924;2024-01-15T03:09:37;33.17;;;12.83;;
3133;SDS011;1577;49.912;10.924;2024-01-15T03:12:03;25.03;;;11.17;;
3133;SDS011;1577;49.912;10.924;2024-01-15T03:14:29;29.85;;;10.27;;
3133;SDS011;1577;49.912;10.924;2024-01-15T03:16:54;28.23;;;12.03;;
3133;SDS011;1577;49.912;10.924;2024-01-15T03:19:20;27.57;;;12.90;;
3133;SDS011;1577;49.912;10.924;2024-01-15T03:21:45;26.20;;;12.60;;
3133;SDS011;1577;49.912;10.924;2024-01-15T03:24:11;27.03;;;12.53;;
3133;SDS011;1577;49.912;10.924;2024-01-15T03:26:37;25.33;;;11.50;;
3133;SDS011;1577;49.912;10.924;2024-01-15T03:29:02;30.00;;;13.70;;
3133;SDS011;1577;49.912;10.924;2024-01-15T03:31:28;24.27;;;10.80;;
3133;SDS011;1577;49.912;10.924;2024-01-15T03:33:53;24.00;;;10.00;;
3133;SDS011;1577;49.912;10.924;2024-01-15T03:36:19;26.60;;;11.87;;
3133;SDS011;1577;49.912;10.924;2024-01-15T03:38:45;25.20;;;12.10;;
3133;SDS011;1577;49.912;10.924;2024-01-15T03:41:10;19.77;;;7.97;;
3133;SDS011;1577;49.912;10.924;2024-01-15T03:43:36;20.20;;;8.00;;
3133;SDS011;1577;49.912;10.924;2024-01-15T03:46:01;25.07;;;10.90;;
3133;SDS011;1577;49.912;10.924;2024-01-15T03:48:27;18.25;;;8.40;;
3133;SDS011;1577;49.912;10.924;2024-01-15T03:50:53;21.80;;;11.33;;
3133;SDS011;1577;49.912;10.924;2024-01-15T03:53:19;28.00;;;11.83;;
3133;SDS011;1577;49.912;10.924;2024-01-15T03:55:44;17.73;;;6.73;;
3133;SDS011;1577;49.912;10.924;2024-01-15T03:58:10;24.53;;;11.00;;
3133;SDS011;1577;49.912;10.924;2024-01-15T04:00:36;29.30;;;11.53;;
3133;SDS011;1577;49.912;10.924;2024-01-15T04:03:01;27.47;;;11.20;;
3133;SDS011;1577;49.912;10.924;2024-01-15T04:05:27;20.37;;;9.63;;
3133;SDS011;1577;49.912;10.924;2024-01-15T04:07:52;24.40;;;10.63;;
3133;SDS011;1577;49.912;10.924;2024-01-15T04:10:18;14.10;;;4.37;;
3133;SDS011;1577;49.912;10.924;2024-01-15T04:12:44;23.47;;;10.50;;
3133;SDS011;1577;49.912;10.924;2024-01-15T04:15:11;20.60;;;8.13;;
3133;SDS011;1577;49.912;10.924;2024-01-15T04:17:37;20.63;;;10.13;;
3133;SDS011;1577;49.912;10.924;2024-01-15T04:20:03;25.30;;;11.43;;
3133;SDS011;1577;49.912;10.924;2024-01-15T04:22:29;20.42;;;7.78;;
3133;SDS011;1577;49.912;10.924;2024-01-15T04:24:54;19.47;;;7.60;;
3133;SDS011;1577;49.912;10.924;2024-01-15T04:27:20;31.70;;;11.70;;
3133;SDS011;1577;49.912;10.924;2024-01-15T04:29:45;21.50;;;10.30;;
3133;SDS011;1577;49.912;10.924;2024-01-15T04:32:11;17.93;;;7.70;;
3133;SDS011;1577;49.912;10.924;2024-01-15T04:34:37;20.37;;;8.50;;
3133;SDS011;1577;49.912;10.924;2024-01-15T04:37:02;14.30;;;7.70;;
3133;SDS011;1577;49.912;10.924;2024-01-15T04:39:28;22.27;;;9.43;;
3133;SDS011;1577;49.912;10.924;2024-01-15T04:41:54;28.03;;;11.00;;
3133;SDS011;1577;49.912;10.924;2024-01-15T04:44:20;20.67;;;9.00;;
3133;SDS011;1577;49.912;10.924;2024-01-15T04:46:45;22.23;;;9.87;;
3133;SDS011;1577;49.912;10.924;2024-01-15T04:49:11;18.97;;;9.20;;
3133;SDS011;1577;49.912;10.924;2024-01-15T04:51:37;25.33;;;9.00;;
3133;SDS011;1577;49.912;10.924;2024-01-15T04:54:02;22.00;;;9.37;;
3133;SDS011;1577;49.912;10.924;2024-01-15T04:56:28;13.65;;;7.07;;
3133;SDS011;1577;49.912;10.924;2024-01-15T04:58:54;25.23;;;11.40;;
3133;SDS011;1577;49.912;10.924;2024-01-15T05:01:19;21.47;;;9.33;;
3133;SDS011;1577;49.912;10.924;2024-01-15T05:03:45;29.10;;;11.20;;
3133;SDS011;1577;49.912;10.924;2024-01-15T05:06:10;31.50;;;13.33;;
3133;SDS011;1577;49.912;10.924;2024-01-15T05:08:36;20.33;;;9.40;;
3133;SDS011;1577;49.912;10.924;2024-01-15T05:11:02;31.70;;;12.40;;
3133;SDS011;1577;49.912;10.924;2024-01-15T05:13:27;21.57;;;9.20;;
3133;SDS011;1577;49.912;10.924;2024-01-15T05:15:53;29.97;;;11.20;;
3133;SDS011;1577;49.912;10.924;2024-01-15T05:18:18;22.10;;;9.33;;
3133;SDS011;1577;49.912;10.924;2024-01-15T05:20:44;19.47;;;7.67;;
3133;SDS011;1577;49.912;10.924;2024-01-15T05:23:10;29.57;;;13.00;;
3133;SDS011;1577;49.912;10.924;2024-01-15T05:25:35;24.60;;;10.53;;
3133;SDS011;1577;49.912;10.924;2024-01-15T05:28:01;24.97;;;9.30;;
3133;SDS011;1577;49.912;10.924;2024-01-15T05:30:27;26.57;;;11.33;;
3133;SDS011;1577;49.912;10.924;2024-01-15T05:32:52;21.67;;;9.40;;
3133;SDS011;1577;49.912;10.924;2024-01-15T05:35:18;25.47;;;9.37;;
3133;SDS011;1577;49.912;10.924;2024-01-15T05:37:44;21.13;;;10.33;;
3133;SDS011;1577;49.912;10.924;2024-01-15T05:40:11;21.23;;;8.98;;
3133;SDS011;1577;49.912;10.924;2024-01-15T05:42:37;22.25;;;10.18;;
3133;SDS011;1577;49.912;10.924;2024-01-15T05:45:04;26.33;;;10.73;;
3133;SDS011;1577;49.912;10.924;2024-01-15T05:47:31;26.77;;;11.68;;
3133;SDS011;1577;49.912;10.924;2024-01-15T05:49:57;23.57;;;11.13;;
3133;SDS011;1577;49.912;10.924;2024-01-15T05:52:23;15.50;;;5.78;;
3133;SDS011;1577;49.912;10.924;2024-01-15T05:54:49;25.40;;;11.87;;
3133;SDS011;1577;49.912;10.924;2024-01-15T05:57:15;23.85;;;11.40;;
3133;SDS011;1577;49.912;10.924;2024-01-15T05:59:41;25.77;;;11.60;;
3133;SDS011;1577;49.912;10.924;2024-01-15T06:02:07;23.73;;;11.25;;
3133;SDS011;1577;49.912;10.924;2024-01-15T06:04:33;28.80;;;11.87;;
3133;SDS011;1577;49.912;10.924;2024-01-15T06:06:58;28.80;;;11.93;;
3133;SDS011;1577;49.912;10.924;2024-01-15T06:09:24;27.13;;;11.60;;
3133;SDS011;1577;49.912;10.924;2024-01-15T06:11:50;32.63;;;11.30;;
3133;SDS011;1577;49.912;10.924;2024-01-15T06:14:15;25.17;;;11.63;;
3133;SDS011;1577;49.912;10.924;2024-01-15T06:16:41;23.67;;;10.73;;
3133;SDS011;1577;49.912;10.924;2024-01-15T06:19:06;18.57;;;8.90;;
3133;SDS011;1577;49.912;10.924;2024-01-15T06:21:32;25.17;;;12.53;;
3133;SDS011;1577;49.912;10.924;2024-01-15T06:23:57;23.07;;;11.30;;
3133;SDS011;1577;49.912;10.924;2024-01-15T06:26:23;14.30;;;8.07;;
3133;SDS011;1577;49.912;10.924;2024-01-15T06:28:48;25.60;;;11.67;;
3133;SDS011;1577;49.912;10.924;2024-01-15T06:31:14;29.47;;;12.33;;
3133;SDS011;1577;49.912;10.924;2024-01-15T06:33:40;28.10;;;12.53;;
3133;SDS011;1577;49.912;10.924;2024-01-15T06:36:05;28.83;;;12.53;;
3133;SDS011;1577;49.912;10.924;2024-01-15T06:38:31;22.27;;;9.82;;
3133;SDS011;1577;49.912;10.924;2024-01-15T06:40:57;20.80;;;7.83;;
3133;SDS011;1577;49.912;10.924;2024-01-15T06:43:23;21.20;;;10.47;;
3133;SDS011;1577;49.912;10.924;2024-01-15T06:45:48;26.70;;;11.13;;
3133;SDS011;1577;49.912;10.924;2024-01-15T06:48:14;22.10;;;9.40;;
3133;SDS011;1577;49.912;10.924;2024-01-15T06:50:41;26.23;;;12.65;;
3133;SDS011;1577;49.912;10.924;2024-01-15T06:53:07;26.27;;;13.07;;
3133;SDS011;1577;49.912;10.924;2024-01-15T06:55:33;25.17;;;12.97;;
3133;SDS011;1577;49.912;10.924;2024-01-15T06:57:58;25.53;;;11.37;;
3133;SDS011;1577;49.912;10.924;2024-01-15T07:00:24;26.87;;;12.97;;
3133;SDS011;1577;49.912;10.924;2024-01-15T07:02:50;22.60;;;11.90;;
3133;SDS011;1577;49.912;10.924;2024-01-15T07:05:16;23.90;;;12.82;;
3133;SDS011;1577;49.912;10.924;2024-01-15T07:07:42;19.87;;;10.70;;
3133;SDS011;1577;49.912;10.924;2024-01-15T07:10:09;26.45;;;11.60;;
3133;SDS011;1577;49.912;10.924;2024-01-15T07:12:35;30.67;;;14.00;;
3133;SDS011;1577;49.912;10.924;2024-01-15T07:15:00;15.27;;;8.30;;
3133;SDS011;1577;49.912;10.924;2024-01-15T07:17:27;20.92;;;9.77;;
3133;SDS011;1577;49.912;10.924;2024-01-15T07:19:52;26.57;;;12.50;;
3133;SDS011;1577;49.912;10.924;2024-01-15T07:22:18;24.07;;;10.80;;
3133;SDS011;1577;49.912;10.924;2024-01-15T07:24:44;26.55;;;11.35;;
3133;SDS011;1577;49.912;10.924;2024-01-15T07:27:10;24.10;;;12.97;;
3133;SDS011;1577;49.912;10.924;2024-01-15T07:29:36;24.70;;;11.33;;
3133;SDS011;1577;49.912;10.924;2024-01-15T07:32:02;25.38;;;12.43;;
3133;SDS011;1577;49.912;10.924;2024-01-15T07:34:28;20.83;;;10.00;;
3133;SDS011;1577;49.912;10.924;2024-01-15T07:36:54;23.40;;;10.30;;
3133;SDS011;1577;49.912;10.924;2024-01-15T07:39:20;23.33;;;10.30;;
3133;SDS011;1577;49.912;10.924;2024-01-15T07:41:45;30.40;;;12.70;;
3133;SDS011;1577;49.912;10.924;2024-01-15T07:44:11;39.83;;;11.17;;
3133;SDS011;1577;49.912;10.924;2024-01-15T07:46:36;18.70;;;11.10;;
3133;SDS011;1577;49.912;10.924;2024-01-15T07:49:02;23.93;;;9.90;;
3133;SDS011;1577;49.912;10.924;2024-01-15T07:51:28;25.67;;;11.10;;
3133;SDS011;1577;49.912;10.924;2024-01-15T07:53:54;28.97;;;14.03;;
3133;SDS011;1577;49.912;10.924;2024-01-15T07:56:20;22.00;;;10.05;;
3133;SDS011;1577;49.912;10.924;2024-01-15T07:58:46;25.30;;;12.10;;
3133;SDS011;1577;49.912;10.924;2024-01-15T08:01:12;23.50;;;10.70;;
3133;SDS011;1577;49.912;10.924;2024-01-15T08:03:38;18.80;;;10.37;;
3133;SDS011;1577;49.912;10.924;2024-01-15T08:06:03;26.00;;;10.37;;
3133;SDS011;1577;49.912;10.924;2024-01-15T08:08:30;28.08;;;12.00;;
3133;SDS011;1577;49.912;10.924;2024-01-15T08:10:55;20.70;;;9.70;;
3133;SDS011;1577;49.912;10.924;2024-01-15T08:13:21;22.67;;;11.63;;
3133;SDS011;1577;49.912;10.924;2024-01-15T08:15:47;25.87;;;14.20;;
3133;SDS011;1577;49.912;10.924;2024-01-15T08:18:12;19.53;;;11.83;;
3133;SDS011;1577;49.912;10.924;2024-01-15T08:20:38;18.43;;;9.47;;
3133;SDS011;1577;49.912;10.924;2024-01-15T08:23:04;16.45;;;9.93;;
3133;SDS011;1577;49.912;10.924;2024-01-15T08:25:30;24.50;;;10.93;;
3133;SDS011;1577;49.912;10.924;2024-01-15T08:27:56;27.23;;;11.37;;
3133;SDS011;1577;49.912;10.924;2024-01-15T08:30:25;19.02;;;8.50;;
3133;SDS011;1577;49.912;10.924;2024-01-15T08:32:53;25.25;;;11.02;;
3133;SDS011;1577;49.912;10.924;2024-01-15T08:35:19;24.95;;;12.07;;
3133;SDS011;1577;49.912;10.924;2024-01-15T08:37:48;15.38;;;7.75;;
3133;SDS011;1577;49.912;10.924;2024-01-15T08:40:20;22.05;;;10.65;;
3133;SDS011;1577;49.912;10.924;2024-01-15T08:42:45;21.93;;;11.60;;
3133;SDS011;1577;49.912;10.924;2024-01-15T08:45:11;21.33;;;10.80;;
3133;SDS011;1577;49.912;10.924;2024-01-15T08:47:37;18.73;;;8.23;;
3133;SDS011;1577;49.912;10.924;2024-01-15T08:50:03;19.43;;;9.90;;
3133;SDS011;1577;49.912;10.924;2024-01-15T08:52:29;21.40;;;9.98;;
3133;SDS011;1577;49.912;10.924;2024-01-15T08:54:57;26.70;;;11.90;;
3133;SDS011;1577;49.912;10.924;2024-01-15T08:57:23;24.40;;;12.05;;
3133;SDS011;1577;49.912;10.924;2024-01-15T08:59:48;19.53;;;9.77;;
3133;SDS011;1577;49.912;10.924;2024-01-15T09:02:14;22.60;;;10.77;;
3133;SDS011;1577;49.912;10.924;2024-01-15T09:04:40;20.80;;;9.50;;
3133;SDS011;1577;49.912;10.924;2024-01-15T09:07:06;20.38;;;12.10;;
3133;SDS011;1577;49.912;10.924;2024-01-15T09:09:32;30.45;;;10.98;;
3133;SDS011;1577;49.912;10.924;2024-01-15T09:11:59;21.52;;;11.55;;
3133;SDS011;1577;49.912;10.924;2024-01-15T09:14:24;17.37;;;9.30;;
3133;SDS011;1577;49.912;10.924;2024-01-15T09:16:51;21.38;;;9.45;;
3133;SDS011;1577;49.912;10.924;2024-01-15T09:19:18;18.00;;;9.95;;
3133;SDS011;1577;49.912;10.924;2024-01-15T09:21:43;22.57;;;11.20;;
3133;SDS011;1577;49.912;10.924;2024-01-15T09:24:09;19.77;;;10.17;;
3133;SDS011;1577;49.912;10.924;2024-01-15T09:26:35;22.93;;;11.90;;
3133;SDS011;1577;49.912;10.924;2024-01-15T09:29:00;27.67;;;11.93;;
3133;SDS011;1577;49.912;10.924;2024-01-15T09:31:26;18.20;;;11.10;;
3133;SDS011;1577;49.912;10.924;2024-01-15T09:33:52;20.40;;;9.83;;
3133;SDS011;1577;49.912;10.924;2024-01-15T09:36:21;18.17;;;9.35;;
3133;SDS011;1577;49.912;10.924;2024-01-15T09:38:47;18.90;;;10.23;;
3133;SDS011;1577;49.912;10.924;2024-01-15T09:41:13;20.07;;;11.07;;
3133;SDS011;1577;49.912;10.924;2024-01-15T09:43:39;20.27;;;10.70;;
3133;SDS011;1577;49.912;10.924;2024-01-15T09:46:06;25.20;;;11.27;;
3133;SDS011;1577;49.912;10.924;2024-01-15T09:48:32;25.67;;;11.38;;
3133;SDS011;1577;49.912;10.924;2024-01-15T09:51:01;19.73;;;11.45;;
3133;SDS011;1577;49.912;10.924;2024-01-15T09:53:27;21.15;;;7.68;;
3133;SDS011;1577;49.912;10.924;2024-01-15T09:55:53;19.80;;;10.50;;
3133;SDS011;1577;49.912;10.924;2024-01-15T09:58:19;20.50;;;10.73;;
3133;SDS011;1577;49.912;10.924;2024-01-15T10:00:46;19.27;;;10.70;;
3133;SDS011;1577;49.912;10.924;2024-01-15T10:03:14;19.00;;;8.70;;
3133;SDS011;1577;49.912;10.924;2024-01-15T10:05:40;12.30;;;6.63;;
3133;SDS011;1577;49.912;10.924;2024-01-15T10:08:06;19.40;;;10.73;;
3133;SDS011;1577;49.912;10.924;2024-01-15T10:10:32;22.70;;;10.67;;
3133;SDS011;1577;49.912;10.924;2024-01-15T10:12:58;19.23;;;10.57;;
3133;SDS011;1577;49.912;10.924;2024-01-15T10:15:27;16.40;;;8.60;;
3133;SDS011;1577;49.912;10.924;2024-01-15T10:17:53;18.98;;;9.20;;
3133;SDS011;1577;49.912;10.924;2024-01-15T10:20:19;11.77;;;6.90;;
3133;SDS011;1577;49.912;10.924;2024-01-15T10:22:47;21.00;;;10.23;;
3133;SDS011;1577;49.912;10.924;2024-01-15T10:25:13;12.80;;;7.17;;
3133;SDS011;1577;49.912;10.924;2024-01-15T10:27:40;23.00;;;10.93;;
3133;SDS011;1577;49.912;10.924;2024-01-15T10:30:09;19.63;;;10.23;;
3133;SDS011;1577;49.912;10.924;2024-01-15T10:32:35;18.27;;;9.75;;
3133;SDS011;1577;49.912;10.924;2024-01-15T10:35:01;16.50;;;9.23;;
3133;SDS011;1577;49.912;10.924;2024-01-15T10:37:28;15.75;;;8.50;;
3133;SDS011;1577;49.912;10.924;2024-01-15T10:39:53;17.13;;;8.40;;
3133;SDS011;1577;49.912;10.924;2024-01-15T10:42:19;18.70;;;10.87;;
3133;SDS011;1577;49.912;10.924;2024-01-15T10:44:44;14.07;;;7.23;;
3133;SDS011;1577;49.912;10.924;2024-01-15T10:47:13;15.88;;;8.05;;
3133;SDS011;1577;49.912;10.924;2024-01-15T10:49:39;17.38;;;9.77;;
3133;SDS011;1577;49.912;10.924;2024-01-15T10:52:06;19.52;;;9.13;;
3133;SDS011;1577;49.912;10.924;2024-01-15T10:54:32;18.30;;;8.93;;
3133;SDS011;1577;49.912;10.924;2024-01-15T10:56:58;20.17;;;9.57;;
3133;SDS011;1577;49.912;10.924;2024-01-15T10:59:24;22.20;;;10.55;;
3133;SDS011;1577;49.912;10.924;2024-01-15T11:01:50;20.73;;;11.93;;
3133;SDS011;1577;49.912;10.924;2024-01-15T11:04:21;19.73;;;10.30;;
3133;SDS011;1577;49.912;10.924;2024-01-15T11:06:49;17.25;;;10.90;;
3133;SDS011;1577;49.912;10.924;2024-01-15T11:09:17;17.70;;;10.63;;
3133;SDS011;1577;49.912;10.924;2024-01-15T11:11:43;17.95;;;8.77;;
3133;SDS011;1577;49.912;10.924;2024-01-15T11:14:11;17.35;;;10.05;;
3133;SDS011;1577;49.912;10.924;2024-01-15T11:17:13;20.48;;;9.70;;
3133;SDS011;1577;49.912;10.924;2024-01-15T11:22:08;18.65;;;10.02;;
3133;SDS011;1577;49.912;10.924;2024-01-15T11:24:37;18.23;;;9.80;;
3133;SDS011;1577;49.912;10.924;2024-01-15T11:27:04;17.25;;;10.05;;
3133;SDS011;1577;49.912;10.924;2024-01-15T11:29:35;19.25;;;10.70;;
3133;SDS011;1577;49.912;10.924;2024-01-15T11:32:02;18.60;;;10.52;;
3133;SDS011;1577;49.912;10.924;2024-01-15T11:34:51;17.15;;;9.63;;
3133;SDS011;1577;49.912;10.924;2024-01-15T11:37:23;20.27;;;10.25;;
3133;SDS011;1577;49.912;10.924;2024-01-15T11:39:50;18.92;;;9.75;;
3133;SDS011;1577;49.912;10.924;2024-01-15T11:42:17;18.40;;;10.85;;
3133;SDS011;1577;49.912;10.924;2024-01-15T11:44:44;18.80;;;9.77;;
3133;SDS011;1577;49.912;10.924;2024-01-15T11:47:11;21.08;;;10.52;;
3133;SDS011;1577;49.912;10.924;2024-01-15T11:52:22;21.15;;;10.10;;
3133;SDS011;1577;49.912;10.924;2024-01-15T11:57:45;15.27;;;8.50;;
3133;SDS011;1577;49.912;10.924;2024-01-15T12:00:12;15.90;;;9.27;;
3133;SDS011;1577;49.912;10.924;2024-01-15T12:02:39;20.50;;;9.68;;
3133;SDS011;1577;49.912;10.924;2024-01-15T12:05:06;21.48;;;9.25;;
3133;SDS011;1577;49.912;10.924;2024-01-15T12:07:33;13.70;;;8.27;;
3133;SDS011;1577;49.912;10.924;2024-01-15T12:09:59;16.75;;;9.25;;
3133;SDS011;1577;49.912;10.924;2024-01-15T12:12:27;15.20;;;9.03;;
3133;SDS011;1577;49.912;10.924;2024-01-15T12:15:04;16.95;;;9.55;;
3133;SDS011;1577;49.912;10.924;2024-01-15T12:17:30;16.03;;;9.10;;
3133;SDS011;1577;49.912;10.924;2024-01-15T12:19:56;15.63;;;9.70;;
3133;SDS011;1577;49.912;10.924;2024-01-15T12:22:22;15.20;;;9.00;;
3133;SDS011;1577;49.912;10.924;2024-01-15T12:24:47;20.67;;;9.50;;
3133;SDS011;1577;49.912;10.924;2024-01-15T12:27:13;16.83;;;8.60;;
3133;SDS011;1577;49.912;10.924;2024-01-15T12:29:39;23.83;;;10.20;;
3133;SDS011;1577;49.912;10.924;2024-01-15T12:32:05;17.00;;;9.70;;
3133;SDS011;1577;49.912;10.924;2024-01-15T12:34:31;15.45;;;9.05;;
3133;SDS011;1577;49.912;10.924;2024-01-15T12:36:57;17.17;;;9.33;;
3133;SDS011;1577;49.912;10.924;2024-01-15T12:39:24;14.80;;;7.70;;
3133;SDS011;1577;49.912;10.924;2024-01-15T12:41:50;17.75;;;10.48;;
3133;SDS011;1577;49.912;10.924;2024-01-15T12:44:16;17.48;;;9.90;;
3133;SDS011;1577;49.912;10.924;2024-01-15T12:46:42;17.60;;;8.40;;
3133;SDS011;1577;49.912;10.924;2024-01-15T12:49:08;19.50;;;9.53;;
3133;SDS011;1577;49.912;10.924;2024-01-15T12:51:36;15.15;;;7.70;;
3133;SDS011;1577;49.912;10.924;2024-01-15T12:54:03;10.55;;;5.93;;
3133;SDS011;1577;49.912;10.924;2024-01-15T12:56:28;18.53;;;9.10;;
3133;SDS011;1577;49.912;10.924;2024-01-15T12:58:54;13.07;;;7.03;;
3133;SDS011;1577;49.912;10.924;2024-01-15T13:01:20;14.97;;;8.70;;
3133;SDS011;1577;49.912;10.924;2024-01-15T13:03:46;17.98;;;10.43;;
3133;SDS011;1577;49.912;10.924;2024-01-15T13:06:12;18.17;;;8.97;;
3133;SDS011;1577;49.912;10.924;2024-01-15T13:08:38;15.20;;;8.20;;
3133;SDS011;1577;49.912;10.924;2024-01-15T13:11:03;21.23;;;9.87;;
3133;SDS011;1577;49.912;10.924;2024-01-15T13:13:29;24.13;;;12.73;;
3133;SDS011;1577;49.912;10.924;2024-01-15T13:15:56;12.38;;;8.13;;
3133;SDS011;1577;49.912;10.924;2024-01-15T13:18:21;15.87;;;9.63;;
3133;SDS011;1577;49.912;10.924;2024-01-15T13:20:47;17.53;;;7.97;;
3133;SDS011;1577;49.912;10.924;2024-01-15T13:23:13;15.88;;;8.73;;
3133;SDS011;1577;49.912;10.924;2024-01-15T13:25:39;14.47;;;8.90;;
3133;SDS011;1577;49.912;10.924;2024-01-15T13:28:05;14.70;;;7.30;;
3133;SDS011;1577;49.912;10.924;2024-01-15T13:30:31;14.23;;;6.65;;
3133;SDS011;1577;49.912;10.924;2024-01-15T13:32:57;11.70;;;6.32;;
3133;SDS011;1577;49.912;10.924;2024-01-15T13:35:28;15.77;;;8.35;;
3133;SDS011;1577;49.912;10.924;2024-01-15T13:37:54;14.30;;;8.10;;
3133;SDS011;1577;49.912;10.924;2024-01-15T13:40:19;11.50;;;7.10;;
3133;SDS011;1577;49.912;10.924;2024-01-15T13:42:48;12.53;;;7.67;;
3133;SDS011;1577;49.912;10.924;2024-01-15T13:45:13;15.75;;;9.00;;
3133;SDS011;1577;49.912;10.924;2024-01-15T13:47:40;12.57;;;8.13;;
3133;SDS011;1577;49.912;10.924;2024-01-15T13:50:07;19.30;;;8.63;;
3133;SDS011;1577;49.912;10.924;2024-01-15T13:52:33;17.63;;;9.77;;
3133;SDS011;1577;49.912;10.924;2024-01-15T13:54:58;14.00;;;8.43;;
3133;SDS011;1577;49.912;10.924;2024-01-15T13:57:24;10.87;;;6.93;;
3133;SDS011;1577;49.912;10.924;2024-01-15T13:59:49;15.57;;;8.37;;
3133;SDS011;1577;49.912;10.924;2024-01-15T14:02:15;15.53;;;8.40;;
3133;SDS011;1577;49.912;10.924;2024-01-15T14:04:41;15.60;;;8.10;;
3133;SDS011;1577;49.912;10.924;2024-01-15T14:07:06;48.67;;;21.53;;
3133;SDS011;1577;49.912;10.924;2024-01-15T14:09:32;43.30;;;19.33;;
3133;SDS011;1577;49.912;10.924;2024-01-15T14:11:58;28.40;;;14.70;;
3133;SDS011;1577;49.912;10.924;2024-01-15T14:14:23;14.43;;;9.57;;
3133;SDS011;1577;49.912;10.924;2024-01-15T14:16:49;16.43;;;8.63;;
3133;SDS011;1577;49.912;10.924;2024-01-15T14:19:15;19.30;;;8.50;;
3133;SDS011;1577;49.912;10.924;2024-01-15T14:21:40;13.50;;;8.03;;
3133;SDS011;1577;49.912;10.924;2024-01-15T14:24:06;11.20;;;6.17;;
3133;SDS011;1577;49.912;10.924;2024-01-15T14:26:32;13.60;;;9.10;;
3133;SDS011;1577;49.912;10.924;2024-01-15T14:28:57;14.80;;;8.23;;
3133;SDS011;1577;49.912;10.924;2024-01-15T14:31:26;12.60;;;7.80;;
3133;SDS011;1577;49.912;10.924;2024-01-15T14:33:53;18.00;;;8.18;;
3133;SDS011;1577;49.912;10.924;2024-01-15T14:36:20;10.20;;;7.07;;
3133;SDS011;1577;49.912;10.924;2024-01-15T14:38:46;9.83;;;5.57;;
3133;SDS011;1577;49.912;10.924;2024-01-15T14:41:11;12.13;;;6.40;;
3133;SDS011;1577;49.912;10.924;2024-01-15T14:43:37;10.63;;;7.20;;